Star Princess — ZCDD6 — position and weather

sailwx.info

Track history (hours):
 
Tides and Currents Weather Stations Pressure Air Temp Water Temp Dewpoint Dewpoint Depression Visibility Wind Speed Wind Dir Waves Ship Positions

Star Princess

Operator: Princess Cruises

Last reported at 2018-Jul-22 02:59 UTC. Time now 2018-Jul-22 03:21 UTC.
Position N 49°23' W 124°07'.

Length 289.6 m; beam 36 m; draft 8.4 m.

Type: Ship. MMSI: 310361000.

Date/timePositionNaut miles runAvg speedWind from/ knotsBaromVisibWave heightAir tempDewpointWater temp
2018-Jul-22 02:59N 49°23' W 124°07'713.2
2018-Jul-22 02:28N 49°22' W 123°57'915.4
2018-Jul-22 01:55N 49°20' W 123°44'715.7
2018-Jul-22 01:28N 49°19' W 123°33'715.5
2018-Jul-22 01:00N 49°19' W 123°22'815.4
2018-Jul-22 00:30N 49°19' W 123°11'3 6.6
2018-Jul-22 00:01N 49°17' W 123°06'0 0.0
2018-Jul-21 23:28N 49°17' W 123°06'0 0.0
2018-Jul-21 22:58N 49°17' W 123°06'0 0.0
2018-Jul-21 22:28N 49°17' W 123°06'0 0.0
2018-Jul-21 22:00N 49°17' W 123°06'0 0.0
2018-Jul-21 21:24N 49°17' W 123°06'0 0.0
2018-Jul-21 21:00N 49°17' W 123°06'0 0.0
2018-Jul-21 20:30N 49°17' W 123°06'0 0.0
2018-Jul-21 19:59N 49°17' W 123°06'0 0.0
2018-Jul-21 19:29N 49°17' W 123°06'0 0.0
2018-Jul-21 18:59N 49°17' W 123°06'0 0.0
2018-Jul-21 18:29N 49°17' W 123°06'0 0.0
2018-Jul-21 17:59N 49°17' W 123°06'0 0.0
2018-Jul-21 17:28N 49°17' W 123°06'0 0.0
2018-Jul-21 16:58N 49°17' W 123°06'0 0.0
2018-Jul-21 16:28N 49°17' W 123°06'0 0.0
2018-Jul-21 15:58N 49°17' W 123°06'0 0.0
2018-Jul-21 15:30N 49°17' W 123°06'0 0.0
2018-Jul-21 15:00N 49°17' W 123°06'0 0.0
2018-Jul-21 14:30N 49°17' W 123°06'0 0.2
2018-Jul-21 13:30N 49°18' W 123°06'3 6.5
2018-Jul-21 13:00N 49°19' W 123°11'5 9.9
2018-Jul-21 12:28N 49°18' W 123°19'5 9.4
2018-Jul-21 11:55N 49°18' W 123°27'5 9.4
2018-Jul-21 11:22N 49°18' W 123°35'410.3
2018-Jul-21 10:56N 49°19' W 123°42'614.3
2018-Jul-21 10:30N 49°20' W 123°51'918.5
2018-Jul-21 10:00N 49°22' W 124°05'1018.5
2018-Jul-21 09:28N 49°25' W 124°19'918.3
2018-Jul-21 08:58N 49°30' W 124°31'918.8
2018-Jul-21 08:30N 49°37' W 124°40'918.7
2018-Jul-21 08:00N 49°44' W 124°50'918.4
2018-Jul-21 07:30N 49°51' W 124°59'918.2
2018-Jul-21 07:00N 49°57' W 125°09'815.8
2018-Jul-21 06:30N 50°04' W 125°15'713.8
2018-Jul-21 06:00N 50°10' W 125°22'712.1
2018-Jul-21 05:28N 50°16' W 125°24'3111.8
2018-Jul-21 02:52N 50°28' W 126°08'814.6
2018-Jul-21 02:19N 50°30' W 126°20'413.9
2018-Jul-21 02:00N 50°30' W 126°27'715.1
2018-Jul-21 01:30N 50°32' W 126°39'815.5
2018-Jul-21 01:00N 50°38' W 126°47'918.7
2018-Jul-21 00:30N 50°43' W 126°59'918.0
2018-Jul-21 00:00N 50°46' W 127°12'917.4
2018-Jul-20 23:30N 50°50' W 127°24'510.9
2018-Jul-20 23:00N 50°52' W 127°32'816.0
2018-Jul-20 22:30N 50°57' W 127°43'510.3
2018-Jul-20 22:00N 50°60' W 127°49'5 9.2
2018-Jul-20 21:30N 51°02' W 127°55'611.1
2018-Jul-20 21:00N 51°05' W 128°02'510.9
2018-Jul-20 20:30N 51°08' W 128°10'510.7
2018-Jul-20 20:00N 51°11' W 128°17'510.7
2018-Jul-20 19:30N 51°16' W 128°22'611.8
2018-Jul-20 19:00N 51°21' W 128°24'611.5
2018-Jul-20 18:30N 51°27' W 128°27'611.6
2018-Jul-20 18:01N 51°32' W 128°29'611.6
2018-Jul-20 17:30N 51°38' W 128°32'611.8
2018-Jul-20 17:00N 51°44' W 128°35'611.8
2018-Jul-20 16:30N 51°49' W 128°39'612.1
2018-Jul-20 16:00N 51°54' W 128°45'612.6
2018-Jul-20 15:30N 51°59' W 128°51'815.4
2018-Jul-20 15:00N 52°04' W 128°60'917.6
2018-Jul-20 14:30N 52°10' W 129°10'8117.8
2018-Jul-20 09:56N 53°14' W 130°33'918.1
2018-Jul-20 09:28N 53°21' W 130°41'918.8
2018-Jul-20 09:00N 53°29' W 130°48'919.1
2018-Jul-20 08:30N 53°38' W 130°52'918.6
2018-Jul-20 08:00N 53°47' W 130°56'918.6
2018-Jul-20 07:30N 53°56' W 131°01'918.2
2018-Jul-20 07:00N 54°05' W 131°05'917.4
2018-Jul-20 06:30N 54°13' W 131°09'816.8
2018-Jul-20 06:00N 54°21' W 131°12'917.1
2018-Jul-20 05:30N 54°30' W 131°15'917.2
2018-Jul-20 04:58N 54°39' W 131°14'817.8
2018-Jul-20 04:30N 54°47' W 131°10'139 6.5
2018-Jul-19 07:00N 56°12' W 134°24'120 2.4 170 / 81022.910.8 12.010.112.0
2018-Jul-17 05:20N 58°09' W 135°14'512.0
2018-Jul-17 04:55N 58°11' W 135°22'512.5
2018-Jul-17 04:29N 58°14' W 135°31'611.5
2018-Jul-17 04:00N 58°16' W 135°41'4 9.0
2018-Jul-17 03:30N 58°18' W 135°48'510.9
2018-Jul-17 03:00N 58°21' W 135°57'713.3
2018-Jul-17 02:30N 58°27' W 136°01'917.9
2018-Jul-17 02:00N 58°36' W 136°03'3 5.3
2018-Jul-17 01:30N 58°39' W 136°04'816.0
2018-Jul-17 01:00N 58°44' W 136°15'6 1.0
2018-Jul-16 18:45N 58°48' W 136°25'518.2
2018-Jul-16 18:30N 58°45' W 136°18'917.7
2018-Jul-16 18:00N 58°39' W 136°05'3 5.5
2018-Jul-16 17:30N 58°37' W 136°02'816.3
2018-Jul-16 17:00N 58°29' W 136°03'611.6
2018-Jul-16 16:30N 58°24' W 135°58'612.9
2018-Jul-16 16:00N 58°19' W 136°07'  
2018-Jul-13 07:00N 58°42' W 139°42'11115.9 300 / 171025.410.8 12.5 8.515.0
2018-Jul-13 00:04N 58°18' W 136°15'319.4
2018-Jul-12 23:55N 58°19' W 136°10'819.0
2018-Jul-12 23:30N 58°24' W 135°58'713.5
2018-Jul-12 23:01N 58°30' W 136°03'816.3
2018-Jul-12 22:30N 58°38' W 136°03'5 9.9
2018-Jul-12 22:00N 58°42' W 136°08'918.4
2018-Jul-12 21:30N 58°47' W 136°23'7 1.4
2018-Jul-12 16:46N 58°51' W 136°34'413.9
2018-Jul-12 16:30N 58°49' W 136°27'1 2.5
2018-Jul-12 15:59N 58°49' W 136°25'917.5
2018-Jul-12 15:30N 58°43' W 136°13'713.9
2018-Jul-12 15:00N 58°38' W 136°03'3199.6
2018-Jul-12 15:00N 58°36' W 136°06'611.9 320 / 51019.310.8 10.0 7.911.0
2018-Jul-12 14:31N 58°30' W 136°04'611.6
2018-Jul-12 14:00N 58°26' W 135°58'611.8
2018-Jul-12 13:30N 58°20' W 135°56'510.3
2018-Jul-12 13:00N 58°18' W 135°47'610.9
2018-Jul-12 12:30N 58°16' W 135°37'611.1
2018-Jul-12 12:00N 58°15' W 135°27'611.1
2018-Jul-12 11:29N 58°12' W 135°17'  
Track history (hours):
 
Tides and Currents Weather Stations Pressure Air Temp Water Temp Dewpoint Dewpoint Depression Visibility Wind Speed Wind Dir Waves Ship Positions

Star Princess

Operator: Princess Cruises

Last reported at 2018-Jul-22 02:59 UTC. Time now 2018-Jul-22 03:21 UTC.
Position N 49°23' W 124°07'.

Length 289.6 m; beam 36 m; draft 8.4 m.

Type: Ship. MMSI: 310361000.

Date/timePositionNaut miles runAvg speedWind from/ knotsBaromVisibWave heightAir tempDewpointWater temp
2018-Jul-22 02:59N 49°23' W 124°07'713.2
2018-Jul-22 02:28N 49°22' W 123°57'915.4
2018-Jul-22 01:55N 49°20' W 123°44'715.7
2018-Jul-22 01:28N 49°19' W 123°33'715.5
2018-Jul-22 01:00N 49°19' W 123°22'815.4
2018-Jul-22 00:30N 49°19' W 123°11'3 6.6
2018-Jul-22 00:01N 49°17' W 123°06'0 0.0
2018-Jul-21 23:28N 49°17' W 123°06'0 0.0
2018-Jul-21 22:58N 49°17' W 123°06'0 0.0
2018-Jul-21 22:28N 49°17' W 123°06'0 0.0
2018-Jul-21 22:00N 49°17' W 123°06'0 0.0
2018-Jul-21 21:24N 49°17' W 123°06'0 0.0
2018-Jul-21 21:00N 49°17' W 123°06'0 0.0
2018-Jul-21 20:30N 49°17' W 123°06'0 0.0
2018-Jul-21 19:59N 49°17' W 123°06'0 0.0
2018-Jul-21 19:29N 49°17' W 123°06'0 0.0
2018-Jul-21 18:59N 49°17' W 123°06'0 0.0
2018-Jul-21 18:29N 49°17' W 123°06'0 0.0
2018-Jul-21 17:59N 49°17' W 123°06'0 0.0
2018-Jul-21 17:28N 49°17' W 123°06'0 0.0
2018-Jul-21 16:58N 49°17' W 123°06'0 0.0
2018-Jul-21 16:28N 49°17' W 123°06'0 0.0
2018-Jul-21 15:58N 49°17' W 123°06'0 0.0
2018-Jul-21 15:30N 49°17' W 123°06'0 0.0
2018-Jul-21 15:00N 49°17' W 123°06'0 0.0
2018-Jul-21 14:30N 49°17' W 123°06'0 0.2
2018-Jul-21 13:30N 49°18' W 123°06'3 6.5
2018-Jul-21 13:00N 49°19' W 123°11'5 9.9
2018-Jul-21 12:28N 49°18' W 123°19'5 9.4
2018-Jul-21 11:55N 49°18' W 123°27'5 9.4
2018-Jul-21 11:22N 49°18' W 123°35'410.3
2018-Jul-21 10:56N 49°19' W 123°42'614.3
2018-Jul-21 10:30N 49°20' W 123°51'918.5
2018-Jul-21 10:00N 49°22' W 124°05'1018.5
2018-Jul-21 09:28N 49°25' W 124°19'918.3
2018-Jul-21 08:58N 49°30' W 124°31'918.8
2018-Jul-21 08:30N 49°37' W 124°40'918.7
2018-Jul-21 08:00N 49°44' W 124°50'918.4
2018-Jul-21 07:30N 49°51' W 124°59'918.2
2018-Jul-21 07:00N 49°57' W 125°09'815.8
2018-Jul-21 06:30N 50°04' W 125°15'713.8
2018-Jul-21 06:00N 50°10' W 125°22'712.1
2018-Jul-21 05:28N 50°16' W 125°24'3111.8
2018-Jul-21 02:52N 50°28' W 126°08'814.6
2018-Jul-21 02:19N 50°30' W 126°20'413.9
2018-Jul-21 02:00N 50°30' W 126°27'715.1
2018-Jul-21 01:30N 50°32' W 126°39'815.5
2018-Jul-21 01:00N 50°38' W 126°47'918.7
2018-Jul-21 00:30N 50°43' W 126°59'918.0
2018-Jul-21 00:00N 50°46' W 127°12'917.4
2018-Jul-20 23:30N 50°50' W 127°24'510.9
2018-Jul-20 23:00N 50°52' W 127°32'816.0
2018-Jul-20 22:30N 50°57' W 127°43'510.3
2018-Jul-20 22:00N 50°60' W 127°49'5 9.2
2018-Jul-20 21:30N 51°02' W 127°55'611.1
2018-Jul-20 21:00N 51°05' W 128°02'510.9
2018-Jul-20 20:30N 51°08' W 128°10'510.7
2018-Jul-20 20:00N 51°11' W 128°17'510.7
2018-Jul-20 19:30N 51°16' W 128°22'611.8
2018-Jul-20 19:00N 51°21' W 128°24'611.5
2018-Jul-20 18:30N 51°27' W 128°27'611.6
2018-Jul-20 18:01N 51°32' W 128°29'611.6
2018-Jul-20 17:30N 51°38' W 128°32'611.8
2018-Jul-20 17:00N 51°44' W 128°35'611.8
2018-Jul-20 16:30N 51°49' W 128°39'612.1
2018-Jul-20 16:00N 51°54' W 128°45'612.6
2018-Jul-20 15:30N 51°59' W 128°51'815.4
2018-Jul-20 15:00N 52°04' W 128°60'917.6
2018-Jul-20 14:30N 52°10' W 129°10'8117.8
2018-Jul-20 09:56N 53°14' W 130°33'918.1
2018-Jul-20 09:28N 53°21' W 130°41'918.8
2018-Jul-20 09:00N 53°29' W 130°48'919.1
2018-Jul-20 08:30N 53°38' W 130°52'918.6
2018-Jul-20 08:00N 53°47' W 130°56'918.6
2018-Jul-20 07:30N 53°56' W 131°01'918.2
2018-Jul-20 07:00N 54°05' W 131°05'917.4
2018-Jul-20 06:30N 54°13' W 131°09'816.8
2018-Jul-20 06:00N 54°21' W 131°12'917.1
2018-Jul-20 05:30N 54°30' W 131°15'917.2
2018-Jul-20 04:58N 54°39' W 131°14'817.8
2018-Jul-20 04:30N 54°47' W 131°10'139 6.5
2018-Jul-19 07:00N 56°12' W 134°24'120 2.4 170 / 81022.910.8 12.010.112.0
2018-Jul-17 05:20N 58°09' W 135°14'512.0
2018-Jul-17 04:55N 58°11' W 135°22'512.5
2018-Jul-17 04:29N 58°14' W 135°31'611.5
2018-Jul-17 04:00N 58°16' W 135°41'4 9.0
2018-Jul-17 03:30N 58°18' W 135°48'510.9
2018-Jul-17 03:00N 58°21' W 135°57'713.3
2018-Jul-17 02:30N 58°27' W 136°01'917.9
2018-Jul-17 02:00N 58°36' W 136°03'3 5.3
2018-Jul-17 01:30N 58°39' W 136°04'816.0
2018-Jul-17 01:00N 58°44' W 136°15'6 1.0
2018-Jul-16 18:45N 58°48' W 136°25'518.2
2018-Jul-16 18:30N 58°45' W 136°18'917.7
2018-Jul-16 18:00N 58°39' W 136°05'3 5.5
2018-Jul-16 17:30N 58°37' W 136°02'816.3
2018-Jul-16 17:00N 58°29' W 136°03'611.6
2018-Jul-16 16:30N 58°24' W 135°58'612.9
2018-Jul-16 16:00N 58°19' W 136°07'  
2018-Jul-13 07:00N 58°42' W 139°42'11115.9 300 / 171025.410.8 12.5 8.515.0
2018-Jul-13 00:04N 58°18' W 136°15'319.4
2018-Jul-12 23:55N 58°19' W 136°10'819.0
2018-Jul-12 23:30N 58°24' W 135°58'713.5
2018-Jul-12 23:01N 58°30' W 136°03'816.3
2018-Jul-12 22:30N 58°38' W 136°03'5 9.9
2018-Jul-12 22:00N 58°42' W 136°08'918.4
2018-Jul-12 21:30N 58°47' W 136°23'7 1.4
2018-Jul-12 16:46N 58°51' W 136°34'413.9
2018-Jul-12 16:30N 58°49' W 136°27'1 2.5
2018-Jul-12 15:59N 58°49' W 136°25'917.5
2018-Jul-12 15:30N 58°43' W 136°13'713.9
2018-Jul-12 15:00N 58°38' W 136°03'3199.6
2018-Jul-12 15:00N 58°36' W 136°06'611.9 320 / 51019.310.8 10.0 7.911.0
2018-Jul-12 14:31N 58°30' W 136°04'611.6
2018-Jul-12 14:00N 58°26' W 135°58'611.8
2018-Jul-12 13:30N 58°20' W 135°56'510.3
2018-Jul-12 13:00N 58°18' W 135°47'610.9
2018-Jul-12 12:30N 58°16' W 135°37'611.1
2018-Jul-12 12:00N 58°15' W 135°27'611.1
2018-Jul-12 11:29N 58°12' W 135°17'  

Dump ship's entire track history